Airport View

Enter ICAO identifier to see the current METAR for that AWOS.

KFNL for example

KSLI 230058Z 27008KT 10SM CLR 28/14 A2999 RMK AO2A SLP158 T02790136

23 Jul 2014 01:39

Other Area AWOS: KLGB - KFUL - KSNA - KTOA

TAF KSLI 2221/2403 30010KT 9999 SKC QNH2998INS BECMG 2303/2304 VRB06KT 9999 SKC QNH3002INS BECMG 2320/2321 29009KT 9999 SKC QNH2999INS TX28/2223Z TN18/2313Z